sensor_id;sensor_type;location;lat;lon;timestamp;P1;durP1;ratioP1;P2;durP2;ratioP2
52848;SDS011;38714;53.180;5.812;2023-02-23T00:01:15;60.28;;;32.63;;
52848;SDS011;38714;53.180;5.812;2023-02-23T00:03:43;62.78;;;32.38;;
52848;SDS011;38714;53.180;5.812;2023-02-23T00:06:10;63.83;;;31.80;;
52848;SDS011;38714;53.180;5.812;2023-02-23T00:08:38;58.17;;;32.95;;
52848;SDS011;38714;53.180;5.812;2023-02-23T00:11:05;70.75;;;33.70;;
52848;SDS011;38714;53.180;5.812;2023-02-23T00:13:33;58.00;;;30.75;;
52848;SDS011;38714;53.180;5.812;2023-02-23T00:16:09;68.10;;;30.92;;
52848;SDS011;38714;53.180;5.812;2023-02-23T00:18:42;58.17;;;30.83;;
52848;SDS011;38714;53.180;5.812;2023-02-23T00:21:19;56.90;;;30.42;;
52848;SDS011;38714;53.180;5.812;2023-02-23T00:23:49;57.67;;;30.35;;
52848;SDS011;38714;53.180;5.812;2023-02-23T00:26:17;57.92;;;27.23;;
52848;SDS011;38714;53.180;5.812;2023-02-23T00:28:45;48.00;;;27.38;;
52848;SDS011;38714;53.180;5.812;2023-02-23T00:31:12;54.63;;;30.23;;
52848;SDS011;38714;53.180;5.812;2023-02-23T00:33:39;56.03;;;30.15;;
52848;SDS011;38714;53.180;5.812;2023-02-23T00:36:07;49.55;;;28.83;;
52848;SDS011;38714;53.180;5.812;2023-02-23T00:38:38;50.53;;;26.40;;
52848;SDS011;38714;53.180;5.812;2023-02-23T00:41:09;52.28;;;28.20;;
52848;SDS011;38714;53.180;5.812;2023-02-23T00:43:44;55.67;;;30.10;;
52848;SDS011;38714;53.180;5.812;2023-02-23T00:46:15;69.47;;;35.00;;
52848;SDS011;38714;53.180;5.812;2023-02-23T00:48:42;53.83;;;28.65;;
52848;SDS011;38714;53.180;5.812;2023-02-23T00:51:09;54.92;;;31.35;;
52848;SDS011;38714;53.180;5.812;2023-02-23T00:53:36;43.88;;;27.77;;
52848;SDS011;38714;53.180;5.812;2023-02-23T00:56:05;51.65;;;28.02;;
52848;SDS011;38714;53.180;5.812;2023-02-23T00:58:32;51.28;;;31.45;;
52848;SDS011;38714;53.180;5.812;2023-02-23T01:00:58;65.43;;;33.10;;
52848;SDS011;38714;53.180;5.812;2023-02-23T01:03:24;54.35;;;30.95;;
52848;SDS011;38714;53.180;5.812;2023-02-23T01:05:51;60.03;;;30.60;;
52848;SDS011;38714;53.180;5.812;2023-02-23T01:08:17;58.05;;;34.00;;
52848;SDS011;38714;53.180;5.812;2023-02-23T01:10:43;67.03;;;33.53;;
52848;SDS011;38714;53.180;5.812;2023-02-23T01:13:16;55.17;;;31.00;;
52848;SDS011;38714;53.180;5.812;2023-02-23T01:15:43;55.58;;;28.88;;
52848;SDS011;38714;53.180;5.812;2023-02-23T01:18:09;59.30;;;32.55;;
52848;SDS011;38714;53.180;5.812;2023-02-23T01:20:35;52.45;;;30.92;;
52848;SDS011;38714;53.180;5.812;2023-02-23T01:23:02;69.07;;;31.25;;
52848;SDS011;38714;53.180;5.812;2023-02-23T01:25:27;57.40;;;29.88;;
52848;SDS011;38714;53.180;5.812;2023-02-23T01:27:53;58.00;;;27.80;;
52848;SDS011;38714;53.180;5.812;2023-02-23T01:30:20;54.78;;;28.42;;
52848;SDS011;38714;53.180;5.812;2023-02-23T01:32:46;59.95;;;31.48;;
52848;SDS011;38714;53.180;5.812;2023-02-23T01:35:12;63.45;;;31.20;;
52848;SDS011;38714;53.180;5.812;2023-02-23T01:37:39;50.72;;;28.52;;
52848;SDS011;38714;53.180;5.812;2023-02-23T01:40:09;60.55;;;30.38;;
52848;SDS011;38714;53.180;5.812;2023-02-23T01:42:39;51.38;;;33.55;;
52848;SDS011;38714;53.180;5.812;2023-02-23T01:45:26;53.35;;;27.52;;
52848;SDS011;38714;53.180;5.812;2023-02-23T01:48:04;52.10;;;27.85;;
52848;SDS011;38714;53.180;5.812;2023-02-23T01:50:59;53.20;;;30.60;;
52848;SDS011;38714;53.180;5.812;2023-02-23T01:53:27;48.85;;;27.58;;
52848;SDS011;38714;53.180;5.812;2023-02-23T01:55:59;51.37;;;26.03;;
52848;SDS011;38714;53.180;5.812;2023-02-23T01:58:29;45.17;;;27.13;;
52848;SDS011;38714;53.180;5.812;2023-02-23T02:00:58;39.45;;;24.08;;
52848;SDS011;38714;53.180;5.812;2023-02-23T02:03:30;44.78;;;25.52;;
52848;SDS011;38714;53.180;5.812;2023-02-23T02:06:00;57.42;;;29.27;;
52848;SDS011;38714;53.180;5.812;2023-02-23T02:08:28;54.25;;;28.08;;
52848;SDS011;38714;53.180;5.812;2023-02-23T02:10:55;50.45;;;25.52;;
52848;SDS011;38714;53.180;5.812;2023-02-23T02:13:22;55.65;;;26.95;;
52848;SDS011;38714;53.180;5.812;2023-02-23T02:18:59;41.25;;;22.92;;
52848;SDS011;38714;53.180;5.812;2023-02-23T02:35:37;35.03;;;20.25;;
52848;SDS011;38714;53.180;5.812;2023-02-23T02:41:48;34.83;;;20.40;;
52848;SDS011;38714;53.180;5.812;2023-02-23T02:47:18;33.67;;;19.10;;
52848;SDS011;38714;53.180;5.812;2023-02-23T02:49:53;42.72;;;21.02;;
52848;SDS011;38714;53.180;5.812;2023-02-23T02:52:34;31.48;;;18.08;;
52848;SDS011;38714;53.180;5.812;2023-02-23T02:55:13;31.13;;;16.30;;
52848;SDS011;38714;53.180;5.812;2023-02-23T02:57:48;37.58;;;18.38;;
52848;SDS011;38714;53.180;5.812;2023-02-23T03:00:17;28.08;;;16.85;;
52848;SDS011;38714;53.180;5.812;2023-02-23T03:03:05;29.50;;;16.40;;
52848;SDS011;38714;53.180;5.812;2023-02-23T03:05:49;28.48;;;20.10;;
52848;SDS011;38714;53.180;5.812;2023-02-23T03:08:42;27.10;;;17.30;;
52848;SDS011;38714;53.180;5.812;2023-02-23T03:11:37;30.42;;;16.65;;
52848;SDS011;38714;53.180;5.812;2023-02-23T03:26:35;28.25;;;18.92;;
52848;SDS011;38714;53.180;5.812;2023-02-23T03:29:32;38.92;;;19.48;;
52848;SDS011;38714;53.180;5.812;2023-02-23T03:38:14;34.45;;;17.70;;
52848;SDS011;38714;53.180;5.812;2023-02-23T03:41:09;38.15;;;19.55;;
52848;SDS011;38714;53.180;5.812;2023-02-23T03:43:56;32.75;;;19.83;;
52848;SDS011;38714;53.180;5.812;2023-02-23T03:46:44;41.75;;;22.02;;
52848;SDS011;38714;53.180;5.812;2023-02-23T03:49:32;37.35;;;20.08;;
52848;SDS011;38714;53.180;5.812;2023-02-23T03:52:24;36.40;;;21.83;;
52848;SDS011;38714;53.180;5.812;2023-02-23T03:55:18;37.53;;;21.83;;
52848;SDS011;38714;53.180;5.812;2023-02-23T03:58:06;42.53;;;20.67;;
52848;SDS011;38714;53.180;5.812;2023-02-23T04:00:55;32.55;;;20.20;;
52848;SDS011;38714;53.180;5.812;2023-02-23T04:03:43;37.53;;;21.73;;
52848;SDS011;38714;53.180;5.812;2023-02-23T04:06:30;40.17;;;21.02;;
52848;SDS011;38714;53.180;5.812;2023-02-23T04:09:17;37.17;;;22.35;;
52848;SDS011;38714;53.180;5.812;2023-02-23T04:12:08;35.28;;;23.08;;
52848;SDS011;38714;53.180;5.812;2023-02-23T04:15:10;40.03;;;20.70;;
52848;SDS011;38714;53.180;5.812;2023-02-23T04:18:03;36.20;;;20.27;;
52848;SDS011;38714;53.180;5.812;2023-02-23T04:20:29;34.65;;;22.17;;
52848;SDS011;38714;53.180;5.812;2023-02-23T04:22:55;34.10;;;21.83;;
52848;SDS011;38714;53.180;5.812;2023-02-23T04:25:21;40.05;;;21.80;;
52848;SDS011;38714;53.180;5.812;2023-02-23T04:27:47;35.65;;;20.77;;
52848;SDS011;38714;53.180;5.812;2023-02-23T04:30:14;35.55;;;19.80;;
52848;SDS011;38714;53.180;5.812;2023-02-23T04:32:40;35.13;;;20.77;;
52848;SDS011;38714;53.180;5.812;2023-02-23T04:35:05;47.50;;;24.55;;
52848;SDS011;38714;53.180;5.812;2023-02-23T04:37:31;43.33;;;21.05;;
52848;SDS011;38714;53.180;5.812;2023-02-23T04:39:57;34.88;;;19.50;;
52848;SDS011;38714;53.180;5.812;2023-02-23T04:42:23;38.78;;;21.20;;
52848;SDS011;38714;53.180;5.812;2023-02-23T04:44:49;35.25;;;20.00;;
52848;SDS011;38714;53.180;5.812;2023-02-23T04:47:14;38.78;;;22.60;;
52848;SDS011;38714;53.180;5.812;2023-02-23T04:49:41;40.42;;;23.27;;
52848;SDS011;38714;53.180;5.812;2023-02-23T04:52:07;47.65;;;22.27;;
52848;SDS011;38714;53.180;5.812;2023-02-23T04:54:36;42.17;;;21.17;;
52848;SDS011;38714;53.180;5.812;2023-02-23T04:57:02;50.80;;;21.70;;
52848;SDS011;38714;53.180;5.812;2023-02-23T04:59:28;51.58;;;26.20;;
52848;SDS011;38714;53.180;5.812;2023-02-23T05:01:55;40.25;;;21.52;;
52848;SDS011;38714;53.180;5.812;2023-02-23T05:04:20;39.50;;;24.60;;
52848;SDS011;38714;53.180;5.812;2023-02-23T05:06:46;41.80;;;23.80;;
52848;SDS011;38714;53.180;5.812;2023-02-23T05:09:12;49.05;;;26.98;;
52848;SDS011;38714;53.180;5.812;2023-02-23T05:11:38;40.95;;;26.17;;
52848;SDS011;38714;53.180;5.812;2023-02-23T05:14:04;39.58;;;24.17;;
52848;SDS011;38714;53.180;5.812;2023-02-23T05:16:30;49.92;;;24.20;;
52848;SDS011;38714;53.180;5.812;2023-02-23T05:18:56;43.88;;;24.58;;
52848;SDS011;38714;53.180;5.812;2023-02-23T05:21:21;51.60;;;25.73;;
52848;SDS011;38714;53.180;5.812;2023-02-23T05:23:47;41.60;;;22.80;;
52848;SDS011;38714;53.180;5.812;2023-02-23T05:26:13;59.45;;;28.10;;
52848;SDS011;38714;53.180;5.812;2023-02-23T05:28:39;50.78;;;24.58;;
52848;SDS011;38714;53.180;5.812;2023-02-23T05:31:06;41.00;;;21.95;;
52848;SDS011;38714;53.180;5.812;2023-02-23T05:33:32;41.17;;;24.02;;
52848;SDS011;38714;53.180;5.812;2023-02-23T05:35:59;45.38;;;22.45;;
52848;SDS011;38714;53.180;5.812;2023-02-23T05:38:25;40.10;;;24.08;;
52848;SDS011;38714;53.180;5.812;2023-02-23T05:40:51;33.25;;;16.73;;
52848;SDS011;38714;53.180;5.812;2023-02-23T05:43:17;33.90;;;18.25;;
52848;SDS011;38714;53.180;5.812;2023-02-23T05:45:43;27.35;;;18.33;;
52848;SDS011;38714;53.180;5.812;2023-02-23T05:48:09;41.55;;;18.27;;
52848;SDS011;38714;53.180;5.812;2023-02-23T05:50:36;33.10;;;18.67;;
52848;SDS011;38714;53.180;5.812;2023-02-23T05:53:01;33.90;;;19.35;;
52848;SDS011;38714;53.180;5.812;2023-02-23T05:55:27;46.70;;;22.48;;
52848;SDS011;38714;53.180;5.812;2023-02-23T05:57:53;36.55;;;22.23;;
52848;SDS011;38714;53.180;5.812;2023-02-23T06:00:19;37.55;;;21.23;;
52848;SDS011;38714;53.180;5.812;2023-02-23T06:02:45;38.58;;;22.13;;
52848;SDS011;38714;53.180;5.812;2023-02-23T06:05:10;40.92;;;23.98;;
52848;SDS011;38714;53.180;5.812;2023-02-23T06:07:38;40.47;;;22.42;;
52848;SDS011;38714;53.180;5.812;2023-02-23T06:10:04;49.83;;;25.98;;
52848;SDS011;38714;53.180;5.812;2023-02-23T06:12:31;40.28;;;21.98;;
52848;SDS011;38714;53.180;5.812;2023-02-23T06:14:56;37.90;;;20.83;;
52848;SDS011;38714;53.180;5.812;2023-02-23T06:17:23;46.72;;;22.55;;
52848;SDS011;38714;53.180;5.812;2023-02-23T06:19:49;32.40;;;19.50;;
52848;SDS011;38714;53.180;5.812;2023-02-23T06:22:16;27.48;;;19.75;;
52848;SDS011;38714;53.180;5.812;2023-02-23T06:24:43;41.40;;;21.65;;
52848;SDS011;38714;53.180;5.812;2023-02-23T06:27:09;38.67;;;19.98;;
52848;SDS011;38714;53.180;5.812;2023-02-23T06:29:34;33.90;;;19.85;;
52848;SDS011;38714;53.180;5.812;2023-02-23T06:32:02;42.05;;;22.42;;
52848;SDS011;38714;53.180;5.812;2023-02-23T06:34:28;38.08;;;20.48;;
52848;SDS011;38714;53.180;5.812;2023-02-23T06:36:55;40.97;;;20.85;;
52848;SDS011;38714;53.180;5.812;2023-02-23T06:39:20;40.22;;;24.05;;
52848;SDS011;38714;53.180;5.812;2023-02-23T06:41:46;38.00;;;21.88;;
52848;SDS011;38714;53.180;5.812;2023-02-23T06:44:12;41.53;;;21.75;;
52848;SDS011;38714;53.180;5.812;2023-02-23T06:46:38;37.53;;;18.88;;
52848;SDS011;38714;53.180;5.812;2023-02-23T06:49:03;33.88;;;19.80;;
52848;SDS011;38714;53.180;5.812;2023-02-23T06:51:29;40.50;;;21.83;;
52848;SDS011;38714;53.180;5.812;2023-02-23T06:53:55;35.28;;;20.33;;
52848;SDS011;38714;53.180;5.812;2023-02-23T06:56:21;38.97;;;18.20;;
52848;SDS011;38714;53.180;5.812;2023-02-23T06:58:47;26.45;;;18.48;;
52848;SDS011;38714;53.180;5.812;2023-02-23T07:01:13;30.05;;;19.27;;
52848;SDS011;38714;53.180;5.812;2023-02-23T07:03:39;37.92;;;18.05;;
52848;SDS011;38714;53.180;5.812;2023-02-23T07:06:06;32.35;;;17.23;;
52848;SDS011;38714;53.180;5.812;2023-02-23T07:08:32;32.72;;;18.27;;
52848;SDS011;38714;53.180;5.812;2023-02-23T07:11:11;24.00;;;15.35;;
52848;SDS011;38714;53.180;5.812;2023-02-23T07:13:38;29.13;;;16.77;;
52848;SDS011;38714;53.180;5.812;2023-02-23T07:16:04;23.88;;;14.85;;
52848;SDS011;38714;53.180;5.812;2023-02-23T07:18:30;35.10;;;17.55;;
52848;SDS011;38714;53.180;5.812;2023-02-23T07:20:56;29.27;;;16.33;;
52848;SDS011;38714;53.180;5.812;2023-02-23T07:23:22;31.17;;;16.85;;
52848;SDS011;38714;53.180;5.812;2023-02-23T07:25:54;28.48;;;17.63;;
52848;SDS011;38714;53.180;5.812;2023-02-23T07:28:21;28.88;;;16.15;;
52848;SDS011;38714;53.180;5.812;2023-02-23T07:30:46;31.38;;;16.08;;
52848;SDS011;38714;53.180;5.812;2023-02-23T07:33:14;28.17;;;15.23;;
52848;SDS011;38714;53.180;5.812;2023-02-23T07:35:40;35.28;;;19.40;;
52848;SDS011;38714;53.180;5.812;2023-02-23T07:38:07;25.75;;;15.68;;
52848;SDS011;38714;53.180;5.812;2023-02-23T07:40:32;25.20;;;16.45;;
52848;SDS011;38714;53.180;5.812;2023-02-23T07:42:58;27.90;;;16.25;;
52848;SDS011;38714;53.180;5.812;2023-02-23T07:45:24;21.33;;;12.18;;
52848;SDS011;38714;53.180;5.812;2023-02-23T07:47:50;27.40;;;15.40;;
52848;SDS011;38714;53.180;5.812;2023-02-23T07:50:15;32.97;;;16.20;;
52848;SDS011;38714;53.180;5.812;2023-02-23T07:52:41;32.40;;;19.17;;
52848;SDS011;38714;53.180;5.812;2023-02-23T07:55:09;30.45;;;18.42;;
52848;SDS011;38714;53.180;5.812;2023-02-23T07:57:35;29.52;;;16.38;;
52848;SDS011;38714;53.180;5.812;2023-02-23T08:00:02;26.90;;;19.20;;
52848;SDS011;38714;53.180;5.812;2023-02-23T08:02:29;23.80;;;15.07;;
52848;SDS011;38714;53.180;5.812;2023-02-23T08:04:56;38.30;;;20.45;;
52848;SDS011;38714;53.180;5.812;2023-02-23T08:07:22;31.38;;;19.65;;
52848;SDS011;38714;53.180;5.812;2023-02-23T08:09:50;37.13;;;17.42;;
52848;SDS011;38714;53.180;5.812;2023-02-23T08:12:16;33.35;;;18.73;;
52848;SDS011;38714;53.180;5.812;2023-02-23T08:14:42;33.85;;;15.93;;
52848;SDS011;38714;53.180;5.812;2023-02-23T08:17:08;33.65;;;16.10;;
52848;SDS011;38714;53.180;5.812;2023-02-23T08:19:34;37.35;;;18.38;;
52848;SDS011;38714;53.180;5.812;2023-02-23T08:22:00;25.50;;;15.18;;
52848;SDS011;38714;53.180;5.812;2023-02-23T08:24:25;25.75;;;15.57;;
52848;SDS011;38714;53.180;5.812;2023-02-23T08:26:53;26.83;;;16.75;;
52848;SDS011;38714;53.180;5.812;2023-02-23T08:29:19;35.10;;;17.73;;
52848;SDS011;38714;53.180;5.812;2023-02-23T08:31:45;27.40;;;15.68;;
52848;SDS011;38714;53.180;5.812;2023-02-23T08:34:11;28.73;;;15.02;;
52848;SDS011;38714;53.180;5.812;2023-02-23T08:36:36;27.55;;;14.60;;
52848;SDS011;38714;53.180;5.812;2023-02-23T08:39:03;33.00;;;16.17;;
52848;SDS011;38714;53.180;5.812;2023-02-23T08:41:31;22.60;;;15.40;;
52848;SDS011;38714;53.180;5.812;2023-02-23T08:43:57;44.10;;;16.80;;
52848;SDS011;38714;53.180;5.812;2023-02-23T08:46:26;31.13;;;16.83;;
52848;SDS011;38714;53.180;5.812;2023-02-23T08:48:52;32.92;;;18.58;;
52848;SDS011;38714;53.180;5.812;2023-02-23T08:51:17;32.13;;;17.05;;
52848;SDS011;38714;53.180;5.812;2023-02-23T08:53:43;31.83;;;15.27;;
52848;SDS011;38714;53.180;5.812;2023-02-23T08:56:09;41.35;;;19.33;;
52848;SDS011;38714;53.180;5.812;2023-02-23T08:58:35;36.90;;;19.05;;
52848;SDS011;38714;53.180;5.812;2023-02-23T09:01:01;32.25;;;20.50;;
52848;SDS011;38714;53.180;5.812;2023-02-23T09:03:27;37.42;;;18.88;;
52848;SDS011;38714;53.180;5.812;2023-02-23T09:05:55;35.00;;;19.63;;
52848;SDS011;38714;53.180;5.812;2023-02-23T09:08:22;30.60;;;18.85;;
52848;SDS011;38714;53.180;5.812;2023-02-23T09:10:48;33.55;;;16.42;;
52848;SDS011;38714;53.180;5.812;2023-02-23T09:13:14;42.00;;;18.83;;
52848;SDS011;38714;53.180;5.812;2023-02-23T09:15:40;36.72;;;17.45;;
52848;SDS011;38714;53.180;5.812;2023-02-23T09:18:09;34.75;;;21.73;;
52848;SDS011;38714;53.180;5.812;2023-02-23T09:20:39;32.42;;;19.83;;
52848;SDS011;38714;53.180;5.812;2023-02-23T09:23:07;39.22;;;18.23;;
52848;SDS011;38714;53.180;5.812;2023-02-23T09:25:32;36.30;;;20.02;;
52848;SDS011;38714;53.180;5.812;2023-02-23T09:27:58;33.63;;;18.55;;
52848;SDS011;38714;53.180;5.812;2023-02-23T09:30:24;36.72;;;20.90;;
52848;SDS011;38714;53.180;5.812;2023-02-23T09:32:51;46.28;;;20.80;;
52848;SDS011;38714;53.180;5.812;2023-02-23T09:35:19;34.17;;;21.10;;
52848;SDS011;38714;53.180;5.812;2023-02-23T09:37:47;43.85;;;24.33;;
52848;SDS011;38714;53.180;5.812;2023-02-23T09:40:19;50.13;;;23.90;;
52848;SDS011;38714;53.180;5.812;2023-02-23T09:45:47;40.00;;;21.25;;
52848;SDS011;38714;53.180;5.812;2023-02-23T09:48:21;49.78;;;22.75;;
52848;SDS011;38714;53.180;5.812;2023-02-23T09:50:50;32.67;;;18.17;;
52848;SDS011;38714;53.180;5.812;2023-02-23T09:56:02;50.13;;;23.42;;
52848;SDS011;38714;53.180;5.812;2023-02-23T09:58:34;42.13;;;22.58;;
52848;SDS011;38714;53.180;5.812;2023-02-23T10:06:25;38.58;;;21.52;;
52848;SDS011;38714;53.180;5.812;2023-02-23T10:11:44;41.33;;;23.85;;
52848;SDS011;38714;53.180;5.812;2023-02-23T10:17:09;60.30;;;27.45;;
52848;SDS011;38714;53.180;5.812;2023-02-23T10:19:58;57.55;;;25.90;;
52848;SDS011;38714;53.180;5.812;2023-02-23T10:22:25;63.55;;;31.98;;
52848;SDS011;38714;53.180;5.812;2023-02-23T10:24:53;58.65;;;27.85;;
52848;SDS011;38714;53.180;5.812;2023-02-23T10:27:26;63.88;;;31.17;;
52848;SDS011;38714;53.180;5.812;2023-02-23T10:29:57;69.65;;;29.20;;
52848;SDS011;38714;53.180;5.812;2023-02-23T10:35:09;55.78;;;27.27;;
52848;SDS011;38714;53.180;5.812;2023-02-23T10:37:48;62.08;;;27.27;;
52848;SDS011;38714;53.180;5.812;2023-02-23T10:40:16;68.78;;;30.77;;
52848;SDS011;38714;53.180;5.812;2023-02-23T10:42:45;61.72;;;30.42;;
52848;SDS011;38714;53.180;5.812;2023-02-23T10:45:11;81.65;;;30.35;;
52848;SDS011;38714;53.180;5.812;2023-02-23T10:47:57;77.43;;;33.88;;
52848;SDS011;38714;53.180;5.812;2023-02-23T10:50:37;62.10;;;31.38;;
52848;SDS011;38714;53.180;5.812;2023-02-23T10:56:10;78.78;;;32.97;;
52848;SDS011;38714;53.180;5.812;2023-02-23T10:58:42;72.75;;;33.50;;
52848;SDS011;38714;53.180;5.812;2023-02-23T11:01:12;69.93;;;34.55;;
52848;SDS011;38714;53.180;5.812;2023-02-23T11:03:46;59.53;;;32.47;;
52848;SDS011;38714;53.180;5.812;2023-02-23T11:06:28;78.72;;;35.30;;
52848;SDS011;38714;53.180;5.812;2023-02-23T11:09:14;91.60;;;37.08;;
52848;SDS011;38714;53.180;5.812;2023-02-23T11:12:35;74.88;;;33.80;;
52848;SDS011;38714;53.180;5.812;2023-02-23T11:17:53;59.78;;;28.35;;
52848;SDS011;38714;53.180;5.812;2023-02-23T11:20:31;67.88;;;30.80;;
52848;SDS011;38714;53.180;5.812;2023-02-23T11:23:10;55.83;;;27.15;;
52848;SDS011;38714;53.180;5.812;2023-02-23T11:25:42;64.13;;;28.52;;
52848;SDS011;38714;53.180;5.812;2023-02-23T11:28:23;70.13;;;34.47;;
52848;SDS011;38714;53.180;5.812;2023-02-23T11:30:55;58.17;;;25.92;;
52848;SDS011;38714;53.180;5.812;2023-02-23T11:33:48;68.45;;;27.83;;
52848;SDS011;38714;53.180;5.812;2023-02-23T11:36:16;48.10;;;24.85;;
52848;SDS011;38714;53.180;5.812;2023-02-23T11:41:40;56.92;;;25.77;;
52848;SDS011;38714;53.180;5.812;2023-02-23T11:44:06;51.33;;;24.95;;
52848;SDS011;38714;53.180;5.812;2023-02-23T11:46:42;51.28;;;23.83;;
52848;SDS011;38714;53.180;5.812;2023-02-23T11:49:13;48.95;;;21.85;;
52848;SDS011;38714;53.180;5.812;2023-02-23T11:51:47;47.45;;;22.73;;
52848;SDS011;38714;53.180;5.812;2023-02-23T11:54:20;60.92;;;22.52;;
52848;SDS011;38714;53.180;5.812;2023-02-23T11:56:55;29.90;;;11.63;;
52848;SDS011;38714;53.180;5.812;2023-02-23T12:02:16;7.63;;;3.25;;
52848;SDS011;38714;53.180;5.812;2023-02-23T12:04:47;5.78;;;2.58;;
52848;SDS011;38714;53.180;5.812;2023-02-23T12:15:39;7.82;;;2.90;;
52848;SDS011;38714;53.180;5.812;2023-02-23T12:18:28;14.25;;;3.58;;
52848;SDS011;38714;53.180;5.812;2023-02-23T12:23:43;20.35;;;5.32;;
52848;SDS011;38714;53.180;5.812;2023-02-23T12:26:16;10.35;;;4.07;;
52848;SDS011;38714;53.180;5.812;2023-02-23T12:28:57;20.55;;;3.83;;
52848;SDS011;38714;53.180;5.812;2023-02-23T12:31:30;21.17;;;4.78;;
52848;SDS011;38714;53.180;5.812;2023-02-23T12:34:13;14.98;;;5.45;;
52848;SDS011;38714;53.180;5.812;2023-02-23T12:36:54;18.73;;;5.97;;
52848;SDS011;38714;53.180;5.812;2023-02-23T12:39:26;22.65;;;5.40;;
52848;SDS011;38714;53.180;5.812;2023-02-23T12:44:51;35.83;;;6.57;;
52848;SDS011;38714;53.180;5.812;2023-02-23T12:50:19;13.35;;;6.07;;
52848;SDS011;38714;53.180;5.812;2023-02-23T12:52:52;22.42;;;6.57;;
52848;SDS011;38714;53.180;5.812;2023-02-23T13:00:56;29.95;;;7.85;;
52848;SDS011;38714;53.180;5.812;2023-02-23T13:06:27;33.63;;;6.40;;
52848;SDS011;38714;53.180;5.812;2023-02-23T13:12:13;27.52;;;6.03;;
52848;SDS011;38714;53.180;5.812;2023-02-23T13:17:30;8.35;;;4.40;;
52848;SDS011;38714;53.180;5.812;2023-02-23T13:20:11;22.33;;;5.22;;
52848;SDS011;38714;53.180;5.812;2023-02-23T13:22:51;9.00;;;5.32;;
52848;SDS011;38714;53.180;5.812;2023-02-23T13:25:27;20.10;;;4.57;;
52848;SDS011;38714;53.180;5.812;2023-02-23T13:27:55;15.00;;;5.15;;
52848;SDS011;38714;53.180;5.812;2023-02-23T13:30:27;13.13;;;4.82;;
52848;SDS011;38714;53.180;5.812;2023-02-23T13:32:56;23.80;;;6.57;;
52848;SDS011;38714;53.180;5.812;2023-02-23T13:35:24;12.20;;;3.88;;
52848;SDS011;38714;53.180;5.812;2023-02-23T13:40:50;13.65;;;5.72;;
52848;SDS011;38714;53.180;5.812;2023-02-23T13:43:25;14.10;;;5.90;;
52848;SDS011;38714;53.180;5.812;2023-02-23T13:53:58;17.58;;;6.88;;
52848;SDS011;38714;53.180;5.812;2023-02-23T13:56:25;32.60;;;8.68;;
52848;SDS011;38714;53.180;5.812;2023-02-23T13:59:04;23.45;;;6.30;;
52848;SDS011;38714;53.180;5.812;2023-02-23T14:04:04;19.85;;;7.70;;
52848;SDS011;38714;53.180;5.812;2023-02-23T14:06:37;27.65;;;6.75;;
52848;SDS011;38714;53.180;5.812;2023-02-23T14:09:06;29.13;;;7.38;;
52848;SDS011;38714;53.180;5.812;2023-02-23T14:11:42;17.90;;;5.15;;
52848;SDS011;38714;53.180;5.812;2023-02-23T14:14:13;15.57;;;4.88;;
52848;SDS011;38714;53.180;5.812;2023-02-23T14:19:42;23.23;;;7.40;;
52848;SDS011;38714;53.180;5.812;2023-02-23T14:22:24;16.40;;;4.53;;
52848;SDS011;38714;53.180;5.812;2023-02-23T14:27:58;10.43;;;4.63;;
52848;SDS011;38714;53.180;5.812;2023-02-23T14:30:44;13.88;;;5.22;;
52848;SDS011;38714;53.180;5.812;2023-02-23T14:44:11;8.88;;;4.40;;
52848;SDS011;38714;53.180;5.812;2023-02-23T14:46:46;11.23;;;4.80;;
52848;SDS011;38714;53.180;5.812;2023-02-23T14:49:18;12.85;;;3.47;;
52848;SDS011;38714;53.180;5.812;2023-02-23T14:51:59;14.02;;;4.43;;
52848;SDS011;38714;53.180;5.812;2023-02-23T14:54:33;9.50;;;3.03;;
52848;SDS011;38714;53.180;5.812;2023-02-23T14:57:02;15.60;;;4.68;;
52848;SDS011;38714;53.180;5.812;2023-02-23T14:59:37;10.45;;;3.97;;
52848;SDS011;38714;53.180;5.812;2023-02-23T15:02:15;13.82;;;3.65;;
52848;SDS011;38714;53.180;5.812;2023-02-23T15:04:45;14.07;;;4.97;;
52848;SDS011;38714;53.180;5.812;2023-02-23T15:07:13;10.73;;;5.57;;
52848;SDS011;38714;53.180;5.812;2023-02-23T15:09:48;6.07;;;3.40;;
52848;SDS011;38714;53.180;5.812;2023-02-23T15:12:18;18.98;;;4.07;;
52848;SDS011;38714;53.180;5.812;2023-02-23T15:14:48;10.90;;;2.95;;
52848;SDS011;38714;53.180;5.812;2023-02-23T15:17:15;15.65;;;4.10;;
52848;SDS011;38714;53.180;5.812;2023-02-23T15:19:44;16.02;;;3.60;;
52848;SDS011;38714;53.180;5.812;2023-02-23T15:22:16;8.20;;;3.33;;
52848;SDS011;38714;53.180;5.812;2023-02-23T15:24:49;14.93;;;3.92;;
52848;SDS011;38714;53.180;5.812;2023-02-23T15:27:19;9.93;;;4.40;;
52848;SDS011;38714;53.180;5.812;2023-02-23T15:29:47;8.52;;;3.88;;
52848;SDS011;38714;53.180;5.812;2023-02-23T15:32:18;20.02;;;3.20;;
52848;SDS011;38714;53.180;5.812;2023-02-23T15:34:45;4.75;;;2.67;;
52848;SDS011;38714;53.180;5.812;2023-02-23T15:37:17;19.42;;;3.38;;
52848;SDS011;38714;53.180;5.812;2023-02-23T15:39:50;10.02;;;3.58;;
52848;SDS011;38714;53.180;5.812;2023-02-23T15:42:23;9.20;;;3.42;;
52848;SDS011;38714;53.180;5.812;2023-02-23T15:44:57;5.63;;;2.17;;
52848;SDS011;38714;53.180;5.812;2023-02-23T15:47:27;5.65;;;2.97;;
52848;SDS011;38714;53.180;5.812;2023-02-23T15:52:38;9.05;;;3.20;;
52848;SDS011;38714;53.180;5.812;2023-02-23T15:55:17;6.55;;;2.45;;
52848;SDS011;38714;53.180;5.812;2023-02-23T15:57:52;12.02;;;2.95;;
52848;SDS011;38714;53.180;5.812;2023-02-23T16:00:20;6.28;;;2.33;;
52848;SDS011;38714;53.180;5.812;2023-02-23T16:02:56;17.20;;;3.38;;
52848;SDS011;38714;53.180;5.812;2023-02-23T16:05:26;10.98;;;4.28;;
52848;SDS011;38714;53.180;5.812;2023-02-23T16:08:00;8.82;;;2.92;;
52848;SDS011;38714;53.180;5.812;2023-02-23T16:10:38;11.65;;;3.40;;
52848;SDS011;38714;53.180;5.812;2023-02-23T16:13:08;7.68;;;2.72;;
52848;SDS011;38714;53.180;5.812;2023-02-23T16:15:37;7.88;;;2.38;;
52848;SDS011;38714;53.180;5.812;2023-02-23T16:18:05;8.32;;;4.38;;
52848;SDS011;38714;53.180;5.812;2023-02-23T16:23:05;4.50;;;2.63;;
52848;SDS011;38714;53.180;5.812;2023-02-23T16:25:39;8.95;;;2.35;;
52848;SDS011;38714;53.180;5.812;2023-02-23T16:28:07;5.68;;;3.05;;
52848;SDS011;38714;53.180;5.812;2023-02-23T16:30:41;6.15;;;2.35;;
52848;SDS011;38714;53.180;5.812;2023-02-23T16:34:16;9.38;;;4.40;;
52848;SDS011;38714;53.180;5.812;2023-02-23T16:36:20;8.25;;;2.72;;
52848;SDS011;38714;53.180;5.812;2023-02-23T16:38:55;5.75;;;3.00;;
52848;SDS011;38714;53.180;5.812;2023-02-23T16:41:31;6.50;;;2.50;;
52848;SDS011;38714;53.180;5.812;2023-02-23T16:43:59;6.20;;;3.55;;
52848;SDS011;38714;53.180;5.812;2023-02-23T16:46:29;12.10;;;4.15;;
52848;SDS011;38714;53.180;5.812;2023-02-23T16:48:57;7.57;;;3.20;;
52848;SDS011;38714;53.180;5.812;2023-02-23T16:51:34;7.65;;;3.25;;
52848;SDS011;38714;53.180;5.812;2023-02-23T16:53:59;4.72;;;3.00;;
52848;SDS011;38714;53.180;5.812;2023-02-23T16:56:28;8.88;;;2.53;;
52848;SDS011;38714;53.180;5.812;2023-02-23T16:58:56;5.10;;;3.20;;
52848;SDS011;38714;53.180;5.812;2023-02-23T17:01:24;12.13;;;3.53;;
52848;SDS011;38714;53.180;5.812;2023-02-23T17:03:49;8.95;;;3.47;;
52848;SDS011;38714;53.180;5.812;2023-02-23T17:06:17;11.77;;;4.32;;
52848;SDS011;38714;53.180;5.812;2023-02-23T17:08:43;8.38;;;2.63;;